createdAt,value
2023-03-12T00:00:22.517Z,3.06
2023-03-12T00:03:15.546Z,3.01
2023-03-12T00:06:10.548Z,3.07
2023-03-12T00:09:02.392Z,3.09
2023-03-12T00:11:50.329Z,3.07
2023-03-12T00:14:40.828Z,2.97
2023-03-12T00:17:28.278Z,2.78
2023-03-12T00:20:23.135Z,2.81
2023-03-12T00:23:13.761Z,2.83
2023-03-12T00:26:04.649Z,2.69
2023-03-12T00:28:54.923Z,2.62
2023-03-12T00:31:43.857Z,2.58
2023-03-12T00:34:31.720Z,2.46
2023-03-12T00:37:23.073Z,2.56
2023-03-12T00:40:14.488Z,2.56
2023-03-12T00:43:02.369Z,2.48
2023-03-12T00:45:54.737Z,2.47
2023-03-12T00:48:44.845Z,2.40
2023-03-12T00:51:31.964Z,2.32
2023-03-12T00:54:22.216Z,2.30
2023-03-12T00:57:11.126Z,2.23
2023-03-12T01:00:05.194Z,2.25
2023-03-12T01:02:53.575Z,2.25
2023-03-12T01:05:39.132Z,2.19
2023-03-12T01:08:27.649Z,2.17
2023-03-12T01:11:22.159Z,2.13
2023-03-12T01:14:18.813Z,2.10
2023-03-12T01:17:02.208Z,2.10
2023-03-12T01:19:45.965Z,2.03
2023-03-12T01:22:29.793Z,2.01
2023-03-12T01:25:13.901Z,1.99
2023-03-12T01:27:59.470Z,1.95
2023-03-12T01:30:43.720Z,2.01
2023-03-12T01:33:36.775Z,1.90
2023-03-12T01:36:30.155Z,1.89
2023-03-12T01:39:19.032Z,1.84
2023-03-12T01:42:03.199Z,1.85
2023-03-12T01:44:59.401Z,1.86
2023-03-12T01:47:52.193Z,1.68
2023-03-12T01:50:39.690Z,1.72
2023-03-12T01:53:28.682Z,1.77
2023-03-12T01:56:20.149Z,1.73
2023-03-12T01:59:21.078Z,1.75
2023-03-12T02:02:13.450Z,1.72
2023-03-12T02:05:09.557Z,1.71
2023-03-12T02:07:56.273Z,1.76
2023-03-12T02:10:41.305Z,1.68
2023-03-12T02:13:30.092Z,1.79
2023-03-12T02:16:18.115Z,1.71
2023-03-12T02:19:24.712Z,1.67
2023-03-12T02:22:16.257Z,1.69
2023-03-12T02:25:07.886Z,1.59
2023-03-12T02:28:01.738Z,1.67
2023-03-12T02:30:53.368Z,1.62
2023-03-12T02:33:43.908Z,1.67
2023-03-12T02:36:30.165Z,1.57
2023-03-12T02:39:22.027Z,1.50
2023-03-12T02:42:11.677Z,1.58
2023-03-12T02:45:08.943Z,1.49
2023-03-12T02:47:56.150Z,1.47
2023-03-12T02:50:48.648Z,1.51
2023-03-12T02:53:41.592Z,1.47
2023-03-12T02:56:34.031Z,1.46
2023-03-12T02:59:23.404Z,1.52
2023-03-12T03:02:16.861Z,1.51
2023-03-12T03:05:08.256Z,1.38
2023-03-12T03:07:56.532Z,1.37
2023-03-12T03:10:40.450Z,1.48
2023-03-12T03:13:32.287Z,1.41
2023-03-12T03:16:21.841Z,1.44
2023-03-12T03:19:07.428Z,1.32
2023-03-12T03:21:51.690Z,1.32
2023-03-12T03:24:42.578Z,1.26
2023-03-12T03:27:36.374Z,1.33
2023-03-12T03:30:23.482Z,1.35
2023-03-12T03:33:16.306Z,1.35
2023-03-12T03:36:10.357Z,1.25
2023-03-12T03:39:01.990Z,1.33
2023-03-12T03:41:54.942Z,1.30
2023-03-12T03:44:46.610Z,1.34
2023-03-12T03:47:37.362Z,1.33
2023-03-12T03:50:24.895Z,1.32
2023-03-12T03:53:16.225Z,1.31
2023-03-12T03:56:06.574Z,1.33
2023-03-12T03:58:56.205Z,1.32
2023-03-12T04:01:43.247Z,1.34
2023-03-12T04:04:34.415Z,1.28
2023-03-12T04:07:25.456Z,1.31
2023-03-12T04:10:16.507Z,1.31
2023-03-12T04:13:06.312Z,1.28
2023-03-12T04:15:52.223Z,1.32
2023-03-12T04:18:41.757Z,1.12
2023-03-12T04:21:33.828Z,1.15
2023-03-12T04:24:26.610Z,1.12
2023-03-12T04:27:18.727Z,1.18
2023-03-12T04:30:08.790Z,1.14
2023-03-12T04:32:55.623Z,1.13
2023-03-12T04:35:45.211Z,1.15
2023-03-12T04:38:36.053Z,1.04
2023-03-12T04:41:26.377Z,0.99
2023-03-12T04:44:18.817Z,0.99
2023-03-12T04:47:10.521Z,0.97
2023-03-12T04:50:02.752Z,1.01
2023-03-12T04:52:50.046Z,1.07
2023-03-12T04:55:39.585Z,1.06
2023-03-12T04:58:32.671Z,1.00
2023-03-12T05:01:32.198Z,1.04
2023-03-12T05:04:22.532Z,1.13
2023-03-12T05:07:12.909Z,1.11
2023-03-12T05:10:06.949Z,1.16
2023-03-12T05:12:53.895Z,1.10
2023-03-12T05:15:41.834Z,1.22
2023-03-12T05:18:36.442Z,1.34
2023-03-12T05:21:31.474Z,1.43
2023-03-12T05:24:25.785Z,1.43
2023-03-12T05:27:14.817Z,1.48
2023-03-12T05:30:04.597Z,1.57
2023-03-12T05:32:50.466Z,1.61
2023-03-12T05:35:43.511Z,1.73
2023-03-12T05:38:40.121Z,1.79
2023-03-12T05:41:27.639Z,1.87
2023-03-12T05:44:13.903Z,1.90
2023-03-12T05:46:59.190Z,2.02
2023-03-12T05:49:47.057Z,2.21
2023-03-12T05:52:37.969Z,2.32
2023-03-12T05:55:23.969Z,2.36
2023-03-12T05:58:11.185Z,2.49
2023-03-12T06:01:01.142Z,4.00
2023-03-12T06:03:50.550Z,6.74
2023-03-12T06:06:43.136Z,8.32
2023-03-12T06:09:30.744Z,8.42
2023-03-12T06:12:25.678Z,8.80
2023-03-12T06:15:21.030Z,10.36
2023-03-12T06:18:10.616Z,11.18
2023-03-12T06:20:54.427Z,11.40
2023-03-12T06:23:45.247Z,12.09
2023-03-12T06:26:35.702Z,13.23
2023-03-12T06:29:23.503Z,13.51
2023-03-12T06:32:17.349Z,14.77
2023-03-12T06:35:08.204Z,16.62
2023-03-12T06:37:55.969Z,17.43
2023-03-12T06:40:47.349Z,19.24
2023-03-12T06:43:36.616Z,20.37
2023-03-12T06:46:36.875Z,21.51
2023-03-12T06:49:23.351Z,23.86
2023-03-12T06:52:12.572Z,24.92
2023-03-12T06:55:01.523Z,26.19
2023-03-12T06:57:52.184Z,26.62
2023-03-12T07:00:42.178Z,27.73
2023-03-12T07:03:27.697Z,28.67
2023-03-12T07:06:21.630Z,28.39
2023-03-12T07:09:10.523Z,28.13
2023-03-12T07:11:57.635Z,27.75
2023-03-12T07:14:47.494Z,28.03
2023-03-12T07:17:36.028Z,27.01
2023-03-12T07:20:22.930Z,25.93
2023-03-12T07:23:08.613Z,27.78
2023-03-12T07:25:57.312Z,29.38
2023-03-12T07:28:47.322Z,29.85
2023-03-12T07:31:32.899Z,31.03
2023-03-12T07:34:21.117Z,30.24
2023-03-12T07:37:06.454Z,30.98
2023-03-12T07:39:53.160Z,29.10
2023-03-12T07:42:37.940Z,29.22
2023-03-12T07:45:23.117Z,29.87
2023-03-12T07:48:12.916Z,32.06
2023-03-12T07:51:02.428Z,31.84
2023-03-12T07:53:47.768Z,30.38
2023-03-12T07:56:34.945Z,30.51
2023-03-12T07:59:22.733Z,31.26
2023-03-12T08:02:07.770Z,31.73
2023-03-12T08:04:51.576Z,32.09
2023-03-12T08:07:37.584Z,31.00
2023-03-12T08:10:28.651Z,32.33
2023-03-12T08:13:16.018Z,32.44
2023-03-12T08:16:09.284Z,30.37
2023-03-12T08:18:58.274Z,29.71
2023-03-12T08:21:44.373Z,29.40
2023-03-12T08:24:36.324Z,31.55
2023-03-12T08:27:21.860Z,29.79
2023-03-12T08:30:14.405Z,30.69
2023-03-12T08:33:04.177Z,32.36
2023-03-12T08:35:58.289Z,31.69
2023-03-12T08:38:46.196Z,31.14
2023-03-12T08:41:34.517Z,30.12
2023-03-12T08:44:18.638Z,32.32
2023-03-12T08:47:02.560Z,34.86
2023-03-12T08:49:53.860Z,34.84
2023-03-12T08:52:42.294Z,35.67
2023-03-12T08:55:30.511Z,34.47
2023-03-12T08:58:19.149Z,34.04
2023-03-12T09:01:03.136Z,34.60
2023-03-12T09:03:49.756Z,34.54
2023-03-12T09:06:36.000Z,36.41
2023-03-12T09:09:22.900Z,37.27
2023-03-12T09:12:11.016Z,37.68
2023-03-12T09:15:04.911Z,37.07
2023-03-12T09:17:51.754Z,37.22
2023-03-12T09:20:37.667Z,36.15
2023-03-12T09:23:25.333Z,36.29
2023-03-12T09:26:17.363Z,36.00
2023-03-12T09:29:06.320Z,37.93
2023-03-12T09:31:55.687Z,36.42
2023-03-12T09:34:41.389Z,37.12
2023-03-12T09:37:27.378Z,37.21
2023-03-12T09:40:17.817Z,36.44
2023-03-12T09:43:07.664Z,35.72
2023-03-12T09:45:56.214Z,36.14
2023-03-12T09:48:47.527Z,36.94
2023-03-12T09:51:40.725Z,35.25
2023-03-12T09:54:30.564Z,34.71
2023-03-12T09:57:20.899Z,37.63
2023-03-12T10:00:08.336Z,37.61
2023-03-12T10:03:13.683Z,37.23
2023-03-12T10:06:13.788Z,36.06
2023-03-12T10:09:09.539Z,36.84
2023-03-12T10:12:02.862Z,38.21
2023-03-12T10:15:01.217Z,38.67
2023-03-12T10:17:56.256Z,35.88
2023-03-12T10:21:16.389Z,37.21
2023-03-12T10:24:18.366Z,37.10
2023-03-12T10:27:03.773Z,38.57
2023-03-12T10:29:51.800Z,38.34
2023-03-12T10:32:47.191Z,38.59
2023-03-12T10:35:35.884Z,39.22
2023-03-12T10:38:30.702Z,37.99
2023-03-12T10:41:20.560Z,39.29
2023-03-12T10:44:11.563Z,38.34
2023-03-12T10:47:17.604Z,37.73
2023-03-12T10:50:17.547Z,38.50
2023-03-12T10:53:29.838Z,33.38
2023-03-12T10:56:17.494Z,34.00
2023-03-12T10:59:05.623Z,36.23
2023-03-12T11:01:56.433Z,39.61
2023-03-12T11:04:44.367Z,40.68
2023-03-12T11:07:32.530Z,41.00
2023-03-12T11:10:28.859Z,40.17
2023-03-12T11:13:36.533Z,40.34
2023-03-12T11:16:32.348Z,39.54
2023-03-12T11:19:33.399Z,37.43
2023-03-12T11:22:34.946Z,40.72
2023-03-12T11:25:34.002Z,40.64
2023-03-12T11:28:26.371Z,34.16
2023-03-12T11:31:21.262Z,31.70
2023-03-12T11:34:12.687Z,27.13
2023-03-12T11:37:11.961Z,29.64
2023-03-12T11:40:17.740Z,30.91
2023-03-12T11:43:42.769Z,24.23
2023-03-12T11:46:49.429Z,21.21
2023-03-12T11:49:55.645Z,18.24
2023-03-12T11:53:01.179Z,17.36
2023-03-12T11:56:02.441Z,16.16
2023-03-12T11:59:20.003Z,14.81
2023-03-12T12:02:26.872Z,14.22
2023-03-12T12:05:30.405Z,13.88
2023-03-12T12:08:38.859Z,12.49
2023-03-12T12:11:32.059Z,11.89
2023-03-12T12:14:34.112Z,11.20
2023-03-12T12:17:31.690Z,11.40
2023-03-12T12:20:27.647Z,11.58
2023-03-12T12:23:21.118Z,11.45
2023-03-12T12:26:15.472Z,11.45
2023-03-12T12:29:19.314Z,10.75
2023-03-12T12:32:15.759Z,11.43
2023-03-12T12:35:10.316Z,11.32
2023-03-12T12:38:01.248Z,11.52
2023-03-12T12:40:51.099Z,11.74
2023-03-12T12:43:41.841Z,11.59
2023-03-12T12:46:29.718Z,11.35
2023-03-12T12:49:23.904Z,11.21
2023-03-12T12:52:11.126Z,11.21
2023-03-12T12:55:03.248Z,10.84
2023-03-12T12:57:53.091Z,10.90
2023-03-12T13:00:48.871Z,10.55
2023-03-12T13:03:40.054Z,10.35
2023-03-12T13:06:33.332Z,10.27
2023-03-12T13:09:20.465Z,10.51
2023-03-12T13:12:21.076Z,10.41
2023-03-12T13:15:43.850Z,10.42
2023-03-12T13:18:38.877Z,10.10
2023-03-12T13:21:36.199Z,10.10
2023-03-12T13:24:28.564Z,9.70
2023-03-12T13:27:21.505Z,9.45
2023-03-12T13:30:47.669Z,9.22
2023-03-12T13:33:50.775Z,9.23
2023-03-12T13:36:40.284Z,9.41
2023-03-12T13:39:33.313Z,9.59
2023-03-12T13:42:37.235Z,9.35
2023-03-12T13:45:29.582Z,9.48
2023-03-12T13:48:20.654Z,9.46
2023-03-12T13:51:19.711Z,9.42
2023-03-12T13:54:06.582Z,9.34
2023-03-12T13:57:02.085Z,8.87
2023-03-12T13:59:49.745Z,8.64
2023-03-12T14:02:40.466Z,8.42
2023-03-12T14:05:26.393Z,8.31
2023-03-12T14:08:29.434Z,8.32
2023-03-12T14:11:42.099Z,8.40
2023-03-12T14:14:56.383Z,8.47
2023-03-12T14:17:44.090Z,8.58
2023-03-12T14:20:33.798Z,8.57
2023-03-12T14:23:23.131Z,8.61
2023-03-12T14:26:17.289Z,8.71
2023-03-12T14:29:12.859Z,8.58
2023-03-12T14:32:05.094Z,8.61
2023-03-12T14:34:58.672Z,8.68
2023-03-12T14:37:47.934Z,8.78
2023-03-12T14:40:41.399Z,8.97
2023-03-12T14:43:30.936Z,9.15
2023-03-12T14:46:26.224Z,9.32
2023-03-12T14:49:24.566Z,9.46
2023-03-12T14:52:12.804Z,9.68
2023-03-12T14:54:59.140Z,9.73
2023-03-12T14:57:47.449Z,9.79
2023-03-12T15:00:37.287Z,9.83
2023-03-12T15:03:35.444Z,9.79
2023-03-12T15:06:35.147Z,9.73
2023-03-12T15:09:26.596Z,9.72
2023-03-12T15:12:26.967Z,9.70
2023-03-12T15:15:19.782Z,9.74
2023-03-12T15:18:10.564Z,9.66
2023-03-12T15:20:57.604Z,9.10
2023-03-12T15:23:46.096Z,9.34
2023-03-12T15:26:38.424Z,9.22
2023-03-12T15:29:27.976Z,8.92
2023-03-12T15:32:18.753Z,8.87
2023-03-12T15:35:18.158Z,8.88
2023-03-12T15:38:08.748Z,8.77
2023-03-12T15:41:00.492Z,8.68
2023-03-12T15:43:51.262Z,8.60
2023-03-12T15:46:37.768Z,8.57
2023-03-12T15:49:32.368Z,8.63
2023-03-12T15:52:35.417Z,8.51
2023-03-12T15:55:32.361Z,8.34
2023-03-12T15:58:29.643Z,8.23
2023-03-12T16:01:20.243Z,8.13
2023-03-12T16:04:07.187Z,8.05
2023-03-12T16:06:53.877Z,7.81
2023-03-12T16:09:42.028Z,7.66
2023-03-12T16:12:31.425Z,7.66
2023-03-12T16:15:21.219Z,7.52
2023-03-12T16:18:08.673Z,7.47
2023-03-12T16:20:56.547Z,7.32
2023-03-12T16:23:44.874Z,7.33
2023-03-12T16:26:32.479Z,7.21
2023-03-12T16:29:21.351Z,6.77
2023-03-12T16:32:14.206Z,6.87
2023-03-12T16:35:00.151Z,7.02
2023-03-12T16:37:47.080Z,7.01
2023-03-12T16:40:34.369Z,6.83
2023-03-12T16:43:22.670Z,6.80
2023-03-12T16:46:12.794Z,6.85
2023-03-12T16:48:57.451Z,6.63
2023-03-12T16:51:47.656Z,6.70
2023-03-12T16:54:34.551Z,6.65
2023-03-12T16:57:29.577Z,6.48
2023-03-12T17:00:18.611Z,6.55
2023-03-12T17:03:08.251Z,6.44
2023-03-12T17:05:56.510Z,6.44
2023-03-12T17:08:45.801Z,6.42
2023-03-12T17:11:34.812Z,6.43
2023-03-12T17:14:25.773Z,6.34
2023-03-12T17:17:14.099Z,6.28
2023-03-12T17:20:01.196Z,6.32
2023-03-12T17:22:46.894Z,6.32
2023-03-12T17:25:32.848Z,6.23
2023-03-12T17:28:22.012Z,6.23
2023-03-12T17:31:08.590Z,6.24
2023-03-12T17:33:55.791Z,6.13
2023-03-12T17:36:42.687Z,6.17
2023-03-12T17:39:32.444Z,6.14
2023-03-12T17:42:24.565Z,6.12
2023-03-12T17:45:14.958Z,5.93
2023-03-12T17:48:01.245Z,5.93
2023-03-12T17:50:50.135Z,5.93
2023-03-12T17:53:43.581Z,5.96
2023-03-12T17:56:32.829Z,5.92
2023-03-12T17:59:22.108Z,5.90
2023-03-12T18:02:09.941Z,5.79
2023-03-12T18:04:56.726Z,5.90
2023-03-12T18:07:43.241Z,5.80
2023-03-12T18:10:33.287Z,5.68
2023-03-12T18:13:18.663Z,5.59
2023-03-12T18:16:02.330Z,5.55
2023-03-12T18:18:46.072Z,5.48
2023-03-12T18:21:29.584Z,5.38
2023-03-12T18:24:14.768Z,5.21
2023-03-12T18:27:00.132Z,5.13
2023-03-12T18:29:50.026Z,5.09
2023-03-12T18:32:35.914Z,4.96
2023-03-12T18:35:20.439Z,4.94
2023-03-12T18:38:04.771Z,4.91
2023-03-12T18:40:52.096Z,4.87
2023-03-12T18:43:38.536Z,4.84
2023-03-12T18:46:25.612Z,4.84
2023-03-12T18:49:14.597Z,4.75
2023-03-12T18:52:00.473Z,4.62
2023-03-12T18:54:47.148Z,4.57
2023-03-12T18:57:31.792Z,4.41
2023-03-12T19:00:19.722Z,4.35
2023-03-12T19:03:05.471Z,4.26
2023-03-12T19:05:50.986Z,4.13
2023-03-12T19:08:37.887Z,4.07
2023-03-12T19:11:23.994Z,4.00
2023-03-12T19:14:08.246Z,3.87
2023-03-12T19:16:57.361Z,3.83
2023-03-12T19:19:43.244Z,3.74
2023-03-12T19:22:31.452Z,3.65
2023-03-12T19:25:17.641Z,3.62
2023-03-12T19:28:04.209Z,3.60
2023-03-12T19:30:50.337Z,3.56
2023-03-12T19:33:38.045Z,3.45
2023-03-12T19:36:24.415Z,3.42
2023-03-12T19:39:22.007Z,3.41
2023-03-12T19:42:09.879Z,3.43
2023-03-12T19:44:57.328Z,3.43
2023-03-12T19:47:42.824Z,3.38
2023-03-12T19:50:33.305Z,3.34
2023-03-12T19:53:20.116Z,3.35
2023-03-12T19:56:08.723Z,3.32
2023-03-12T19:58:52.029Z,3.40
2023-03-12T20:01:38.310Z,3.38
2023-03-12T20:04:25.040Z,3.32
2023-03-12T20:07:13.221Z,3.34
2023-03-12T20:10:00.642Z,3.32
2023-03-12T20:12:47.953Z,3.23
2023-03-12T20:15:34.757Z,3.16
2023-03-12T20:18:23.676Z,3.11
2023-03-12T20:21:12.445Z,3.02
2023-03-12T20:23:58.734Z,2.94
2023-03-12T20:26:46.622Z,2.80
2023-03-12T20:29:33.652Z,2.85
2023-03-12T20:32:22.358Z,2.86
2023-03-12T20:35:08.678Z,2.82
2023-03-12T20:37:55.012Z,2.82
2023-03-12T20:40:42.164Z,2.73
2023-03-12T20:43:31.291Z,2.72
2023-03-12T20:46:18.758Z,2.65
2023-03-12T20:49:04.039Z,2.62
2023-03-12T20:51:50.413Z,2.68
2023-03-12T20:54:36.516Z,2.68
2023-03-12T20:57:28.792Z,2.61
2023-03-12T21:00:16.712Z,2.60
2023-03-12T21:03:03.236Z,2.52
2023-03-12T21:05:58.698Z,2.59
2023-03-12T21:08:43.304Z,2.60
2023-03-12T21:11:28.478Z,2.48
2023-03-12T21:14:17.968Z,2.41
2023-03-12T21:17:04.909Z,2.43
2023-03-12T21:19:51.174Z,2.41
2023-03-12T21:22:37.350Z,2.39
2023-03-12T21:25:25.237Z,2.39
2023-03-12T21:28:12.431Z,2.29
2023-03-12T21:31:00.313Z,2.29
2023-03-12T21:33:47.007Z,2.26
2023-03-12T21:36:30.890Z,2.25
2023-03-12T21:39:18.976Z,2.22
2023-03-12T21:42:04.144Z,2.24
2023-03-12T21:44:52.886Z,2.16
2023-03-12T21:47:45.885Z,2.09
2023-03-12T21:50:34.239Z,2.11
2023-03-12T21:53:24.272Z,2.07
2023-03-12T21:56:13.888Z,2.04
2023-03-12T21:59:06.610Z,2.04
2023-03-12T22:01:57.480Z,2.04
2023-03-12T22:04:48.656Z,2.04
2023-03-12T22:07:40.418Z,2.06
2023-03-12T22:10:28.279Z,1.94
2023-03-12T22:13:16.540Z,1.98
2023-03-12T22:16:04.245Z,1.90
2023-03-12T22:18:55.928Z,1.96
2023-03-12T22:21:52.482Z,1.90
2023-03-12T22:24:37.188Z,1.94
2023-03-12T22:27:28.619Z,2.00
2023-03-12T22:30:16.624Z,1.90
2023-03-12T22:33:05.926Z,1.94
2023-03-12T22:35:55.373Z,1.84
2023-03-12T22:38:44.835Z,1.83
2023-03-12T22:41:30.867Z,1.79
2023-03-12T22:44:19.627Z,1.86
2023-03-12T22:47:09.301Z,1.87
2023-03-12T22:49:53.652Z,1.84
2023-03-12T22:52:48.383Z,1.81
2023-03-12T22:55:44.136Z,1.67
2023-03-12T22:58:30.469Z,1.71
2023-03-12T23:01:23.251Z,1.73
2023-03-12T23:04:07.394Z,1.81
2023-03-12T23:07:11.369Z,1.70
2023-03-12T23:10:02.940Z,1.66
2023-03-12T23:12:54.333Z,1.52
2023-03-12T23:15:44.560Z,1.56
2023-03-12T23:18:30.542Z,1.50
2023-03-12T23:21:22.719Z,1.60
2023-03-12T23:24:11.803Z,1.53
2023-03-12T23:27:01.263Z,1.44
2023-03-12T23:29:50.644Z,1.45
2023-03-12T23:32:40.689Z,1.40
2023-03-12T23:35:30.437Z,1.27
2023-03-12T23:38:19.180Z,1.13
2023-03-12T23:41:05.809Z,1.07
2023-03-12T23:43:53.500Z,0.91
2023-03-12T23:46:46.797Z,1.02
2023-03-12T23:49:36.603Z,1.04
2023-03-12T23:52:28.411Z,1.00
2023-03-12T23:55:18.064Z,0.99
2023-03-12T23:58:04.536Z,0.85
